sensor_id;sensor_type;location;lat;lon;timestamp;pressure;altitude;pressure_sealevel;temperature;humidity
23339;BME280;11841;49.368;20.962;2023-04-01T00:00:33;94098.88;;;7.83;100.00
23339;BME280;11841;49.368;20.962;2023-04-01T00:02:59;94107.78;;;7.82;100.00
23339;BME280;11841;49.368;20.962;2023-04-01T00:05:27;94096.13;;;7.78;100.00
23339;BME280;11841;49.368;20.962;2023-04-01T00:07:53;94089.81;;;7.79;100.00
23339;BME280;11841;49.368;20.962;2023-04-01T00:10:20;94080.31;;;7.78;100.00
23339;BME280;11841;49.368;20.962;2023-04-01T00:12:46;94075.53;;;7.75;100.00
23339;BME280;11841;49.368;20.962;2023-04-01T00:15:13;94080.31;;;7.62;100.00
23339;BME280;11841;49.368;20.962;2023-04-01T00:17:41;94072.84;;;7.59;100.00
23339;BME280;11841;49.368;20.962;2023-04-01T00:20:08;94066.53;;;7.60;100.00
23339;BME280;11841;49.368;20.962;2023-04-01T00:22:35;94072.06;;;7.58;100.00
23339;BME280;11841;49.368;20.962;2023-04-01T00:25:02;94075.72;;;7.57;100.00
23339;BME280;11841;49.368;20.962;2023-04-01T00:27:29;94069.56;;;7.52;100.00
23339;BME280;11841;49.368;20.962;2023-04-01T00:29:55;94068.44;;;7.48;100.00
23339;BME280;11841;49.368;20.962;2023-04-01T00:32:22;94070.59;;;7.51;100.00
23339;BME280;11841;49.368;20.962;2023-04-01T00:34:52;94064.50;;;7.50;100.00
23339;BME280;11841;49.368;20.962;2023-04-01T00:37:19;94071.56;;;7.45;100.00
23339;BME280;11841;49.368;20.962;2023-04-01T00:39:45;94078.41;;;7.46;100.00
23339;BME280;11841;49.368;20.962;2023-04-01T00:42:12;94081.88;;;7.46;100.00
23339;BME280;11841;49.368;20.962;2023-04-01T00:44:40;94087.72;;;7.48;100.00
23339;BME280;11841;49.368;20.962;2023-04-01T00:47:07;94081.06;;;7.46;100.00
23339;BME280;11841;49.368;20.962;2023-04-01T00:49:37;94083.13;;;7.44;100.00
23339;BME280;11841;49.368;20.962;2023-04-01T00:52:05;94074.63;;;7.42;100.00
23339;BME280;11841;49.368;20.962;2023-04-01T00:54:33;94074.88;;;7.40;100.00
23339;BME280;11841;49.368;20.962;2023-04-01T00:57:02;94075.13;;;7.38;100.00
23339;BME280;11841;49.368;20.962;2023-04-01T00:59:31;94074.78;;;7.35;100.00
23339;BME280;11841;49.368;20.962;2023-04-01T01:01:59;94078.16;;;7.30;100.00
23339;BME280;11841;49.368;20.962;2023-04-01T01:04:27;94096.03;;;7.28;100.00
23339;BME280;11841;49.368;20.962;2023-04-01T01:12:29;94094.47;;;7.16;100.00
23339;BME280;11841;49.368;20.962;2023-04-01T01:27:35;94096.34;;;7.04;100.00
23339;BME280;11841;49.368;20.962;2023-04-01T01:37:33;94085.00;;;7.03;100.00
23339;BME280;11841;49.368;20.962;2023-04-01T01:40:03;94084.44;;;7.01;100.00
23339;BME280;11841;49.368;20.962;2023-04-01T01:42:31;94088.34;;;6.99;100.00
23339;BME280;11841;49.368;20.962;2023-04-01T01:44:59;94090.41;;;6.97;100.00
23339;BME280;11841;49.368;20.962;2023-04-01T01:47:27;94093.72;;;6.92;100.00
23339;BME280;11841;49.368;20.962;2023-04-01T01:49:54;94090.88;;;6.82;100.00
23339;BME280;11841;49.368;20.962;2023-04-01T01:52:22;94091.94;;;6.81;100.00
23339;BME280;11841;49.368;20.962;2023-04-01T01:54:53;94092.75;;;6.82;100.00
23339;BME280;11841;49.368;20.962;2023-04-01T01:57:24;94092.97;;;6.80;100.00
23339;BME280;11841;49.368;20.962;2023-04-01T01:59:52;94095.81;;;6.79;100.00
23339;BME280;11841;49.368;20.962;2023-04-01T02:02:21;94102.38;;;6.76;100.00
23339;BME280;11841;49.368;20.962;2023-04-01T02:04:48;94103.63;;;6.74;100.00
23339;BME280;11841;49.368;20.962;2023-04-01T02:07:18;94108.09;;;6.73;100.00
23339;BME280;11841;49.368;20.962;2023-04-01T02:09:46;94109.69;;;6.74;100.00
23339;BME280;11841;49.368;20.962;2023-04-01T02:12:13;94109.69;;;6.74;100.00
23339;BME280;11841;49.368;20.962;2023-04-01T02:14:43;94108.09;;;6.73;100.00
23339;BME280;11841;49.368;20.962;2023-04-01T02:17:11;94112.56;;;6.73;100.00
23339;BME280;11841;49.368;20.962;2023-04-01T02:19:40;94108.53;;;6.70;100.00
23339;BME280;11841;49.368;20.962;2023-04-01T02:22:10;94103.75;;;6.67;100.00
23339;BME280;11841;49.368;20.962;2023-04-01T02:24:38;94107.41;;;6.66;100.00
23339;BME280;11841;49.368;20.962;2023-04-01T02:27:06;94108.22;;;6.67;100.00
23339;BME280;11841;49.368;20.962;2023-04-01T02:29:32;94111.06;;;6.65;100.00
23339;BME280;11841;49.368;20.962;2023-04-01T02:31:59;94110.28;;;6.65;100.00
23339;BME280;11841;49.368;20.962;2023-04-01T02:34:26;94103.63;;;6.62;100.00
23339;BME280;11841;49.368;20.962;2023-04-01T02:36:53;94109.94;;;6.61;100.00
23339;BME280;11841;49.368;20.962;2023-04-01T02:39:21;94104.09;;;6.59;99.97
23339;BME280;11841;49.368;20.962;2023-04-01T02:41:48;94110.31;;;6.53;100.00
23339;BME280;11841;49.368;20.962;2023-04-01T02:44:14;94109.72;;;6.51;99.54
23339;BME280;11841;49.368;20.962;2023-04-01T02:46:41;94107.00;;;6.46;99.57
23339;BME280;11841;49.368;20.962;2023-04-01T02:49:08;94105.38;;;6.45;99.07
23339;BME280;11841;49.368;20.962;2023-04-01T02:51:34;94103.09;;;6.37;99.06
23339;BME280;11841;49.368;20.962;2023-04-01T02:54:01;94104.56;;;6.33;99.42
23339;BME280;11841;49.368;20.962;2023-04-01T02:56:28;94102.41;;;6.30;99.63
23339;BME280;11841;49.368;20.962;2023-04-01T02:58:54;94102.88;;;6.27;99.71
23339;BME280;11841;49.368;20.962;2023-04-01T03:01:21;94100.13;;;6.22;98.75
23339;BME280;11841;49.368;20.962;2023-04-01T03:03:48;94107.91;;;6.17;98.61
23339;BME280;11841;49.368;20.962;2023-04-01T03:06:16;94112.81;;;6.13;98.49
23339;BME280;11841;49.368;20.962;2023-04-01T03:08:42;94113.50;;;6.09;98.39
23339;BME280;11841;49.368;20.962;2023-04-01T03:11:09;94112.94;;;6.07;98.67
23339;BME280;11841;49.368;20.962;2023-04-01T03:13:36;94110.97;;;6.02;98.28
23339;BME280;11841;49.368;20.962;2023-04-01T03:16:03;94113.81;;;6.01;98.80
23339;BME280;11841;49.368;20.962;2023-04-01T03:18:30;94111.06;;;5.96;98.47
23339;BME280;11841;49.368;20.962;2023-04-01T03:20:56;94103.63;;;5.93;97.98
23339;BME280;11841;49.368;20.962;2023-04-01T03:23:22;94109.81;;;5.87;97.70
23339;BME280;11841;49.368;20.962;2023-04-01T03:25:50;94115.72;;;5.82;97.05
23339;BME280;11841;49.368;20.962;2023-04-01T03:28:17;94123.47;;;5.77;97.67
23339;BME280;11841;49.368;20.962;2023-04-01T03:30:43;94127.59;;;5.73;97.36
23339;BME280;11841;49.368;20.962;2023-04-01T03:33:10;94132.50;;;5.70;97.45
23339;BME280;11841;49.368;20.962;2023-04-01T03:35:36;94137.63;;;5.65;97.43
23339;BME280;11841;49.368;20.962;2023-04-01T03:38:03;94142.88;;;5.65;97.73
23339;BME280;11841;49.368;20.962;2023-04-01T03:40:29;94143.19;;;5.57;98.80
23339;BME280;11841;49.368;20.962;2023-04-01T03:42:56;94135.88;;;5.59;98.75
23339;BME280;11841;49.368;20.962;2023-04-01T03:45:22;94133.72;;;5.56;99.16
23339;BME280;11841;49.368;20.962;2023-04-01T03:47:49;94134.28;;;5.58;99.71
23339;BME280;11841;49.368;20.962;2023-04-01T03:50:15;94135.66;;;5.60;99.50
23339;BME280;11841;49.368;20.962;2023-04-01T03:52:42;94138.88;;;5.62;99.20
23339;BME280;11841;49.368;20.962;2023-04-01T03:55:08;94139.69;;;5.63;99.47
23339;BME280;11841;49.368;20.962;2023-04-01T03:57:35;94141.28;;;5.64;99.71
23339;BME280;11841;49.368;20.962;2023-04-01T04:00:02;94138.63;;;5.64;99.67
23339;BME280;11841;49.368;20.962;2023-04-01T04:02:28;94146.06;;;5.67;99.63
23339;BME280;11841;49.368;20.962;2023-04-01T04:04:55;94137.41;;;5.66;99.26
23339;BME280;11841;49.368;20.962;2023-04-01T04:07:21;94135.56;;;5.67;99.37
23339;BME280;11841;49.368;20.962;2023-04-01T04:09:48;94138.63;;;5.64;100.00
23339;BME280;11841;49.368;20.962;2023-04-01T04:12:14;94134.41;;;5.63;100.00
23339;BME280;11841;49.368;20.962;2023-04-01T04:14:41;94145.53;;;5.65;100.00
23339;BME280;11841;49.368;20.962;2023-04-01T04:17:09;94136.25;;;5.62;100.00
23339;BME280;11841;49.368;20.962;2023-04-01T04:19:39;94139.09;;;5.61;100.00
23339;BME280;11841;49.368;20.962;2023-04-01T04:22:06;94132.25;;;5.60;100.00
23339;BME280;11841;49.368;20.962;2023-04-01T04:24:33;94137.84;;;5.63;100.00
23339;BME280;11841;49.368;20.962;2023-04-01T04:27:00;94139.22;;;5.66;100.00
23339;BME280;11841;49.368;20.962;2023-04-01T04:29:26;94145.06;;;5.68;100.00
23339;BME280;11841;49.368;20.962;2023-04-01T04:31:53;94137.75;;;5.70;100.00
23339;BME280;11841;49.368;20.962;2023-04-01T04:34:20;94139.94;;;5.73;100.00
23339;BME280;11841;49.368;20.962;2023-04-01T04:36:48;94144.16;;;5.74;100.00
23339;BME280;11841;49.368;20.962;2023-04-01T04:39:15;94143.38;;;5.73;100.00
23339;BME280;11841;49.368;20.962;2023-04-01T04:41:41;94138.31;;;5.72;100.00
23339;BME280;11841;49.368;20.962;2023-04-01T04:44:07;94136.50;;;5.72;100.00
23339;BME280;11841;49.368;20.962;2023-04-01T04:46:34;94136.94;;;5.69;100.00
23339;BME280;11841;49.368;20.962;2023-04-01T04:49:02;94145.44;;;5.53;100.00
23339;BME280;11841;49.368;20.962;2023-04-01T04:51:28;94135.97;;;5.52;100.00
23339;BME280;11841;49.368;20.962;2023-04-01T04:53:55;94136.91;;;5.58;100.00
23339;BME280;11841;49.368;20.962;2023-04-01T04:56:22;94138.63;;;5.64;100.00
23339;BME280;11841;49.368;20.962;2023-04-01T04:58:48;94136.94;;;5.69;100.00
23339;BME280;11841;49.368;20.962;2023-04-01T05:01:15;94144.59;;;5.71;100.00
23339;BME280;11841;49.368;20.962;2023-04-01T05:03:42;94153.06;;;5.73;100.00
23339;BME280;11841;49.368;20.962;2023-04-01T05:06:09;94146.34;;;5.77;100.00
23339;BME280;11841;49.368;20.962;2023-04-01T05:08:36;94142.69;;;5.78;100.00
23339;BME280;11841;49.368;20.962;2023-04-01T05:11:03;94154.78;;;5.79;100.00
23339;BME280;11841;49.368;20.962;2023-04-01T05:13:30;94150.56;;;5.78;100.00
23339;BME280;11841;49.368;20.962;2023-04-01T05:15:56;94140.88;;;5.78;100.00
23339;BME280;11841;49.368;20.962;2023-04-01T05:18:23;94146.47;;;5.82;100.00
23339;BME280;11841;49.368;20.962;2023-04-01T05:20:50;94147.28;;;5.82;100.00
23339;BME280;11841;49.368;20.962;2023-04-01T05:23:17;94150.72;;;5.83;100.00
23339;BME280;11841;49.368;20.962;2023-04-01T05:25:43;94151.31;;;5.85;100.00
23339;BME280;11841;49.368;20.962;2023-04-01T05:28:11;94145.59;;;5.88;100.00
23339;BME280;11841;49.368;20.962;2023-04-01T05:30:39;94142.50;;;5.91;100.00
23339;BME280;11841;49.368;20.962;2023-04-01T05:33:06;94152.91;;;5.86;100.00
23339;BME280;11841;49.368;20.962;2023-04-01T05:35:33;94151.38;;;5.78;100.00
23339;BME280;11841;49.368;20.962;2023-04-01T05:37:59;94152.63;;;5.76;100.00
23339;BME280;11841;49.368;20.962;2023-04-01T05:40:27;94156.06;;;5.76;100.00
23339;BME280;11841;49.368;20.962;2023-04-01T05:42:53;94146.19;;;5.72;100.00
23339;BME280;11841;49.368;20.962;2023-04-01T05:45:20;94153.44;;;5.76;100.00
23339;BME280;11841;49.368;20.962;2023-04-01T05:47:46;94153.06;;;5.73;100.00
23339;BME280;11841;49.368;20.962;2023-04-01T05:50:13;94152.16;;;5.79;100.00
23339;BME280;11841;49.368;20.962;2023-04-01T05:52:39;94158.16;;;5.86;100.00
23339;BME280;11841;49.368;20.962;2023-04-01T05:55:06;94151.44;;;5.90;100.00
23339;BME280;11841;49.368;20.962;2023-04-01T05:57:33;94149.16;;;5.93;100.00
23339;BME280;11841;49.368;20.962;2023-04-01T05:59:59;94149.88;;;6.00;100.00
23339;BME280;11841;49.368;20.962;2023-04-01T06:02:26;94155.25;;;6.05;100.00
23339;BME280;11841;49.368;20.962;2023-04-01T06:04:54;94154.44;;;6.05;100.00
23339;BME280;11841;49.368;20.962;2023-04-01T06:07:26;94153.63;;;6.04;100.00
23339;BME280;11841;49.368;20.962;2023-04-01T06:09:53;94152.69;;;5.99;100.00
23339;BME280;11841;49.368;20.962;2023-04-01T06:57:00;94146.44;;;6.35;100.00
23339;BME280;11841;49.368;20.962;2023-04-01T06:59:30;94142.22;;;6.45;100.00
23339;BME280;11841;49.368;20.962;2023-04-01T07:02:04;94141.44;;;6.56;100.00
23339;BME280;11841;49.368;20.962;2023-04-01T07:04:33;94139.59;;;6.68;100.00
23339;BME280;11841;49.368;20.962;2023-04-01T07:07:03;94141.63;;;6.78;100.00
23339;BME280;11841;49.368;20.962;2023-04-01T07:09:32;94143.47;;;6.89;100.00
23339;BME280;11841;49.368;20.962;2023-04-01T07:12:00;94143.22;;;7.02;100.00
23339;BME280;11841;49.368;20.962;2023-04-01T07:14:29;94134.22;;;7.14;100.00
23339;BME280;11841;49.368;20.962;2023-04-01T07:17:00;94135.00;;;7.26;100.00
23339;BME280;11841;49.368;20.962;2023-04-01T07:19:39;94131.38;;;7.44;100.00
23339;BME280;11841;49.368;20.962;2023-04-01T07:24:41;94118.97;;;7.73;100.00
23339;BME280;11841;49.368;20.962;2023-04-01T07:27:10;94119.00;;;7.89;100.00
23339;BME280;11841;49.368;20.962;2023-04-01T07:29:37;94115.84;;;8.04;100.00
23339;BME280;11841;49.368;20.962;2023-04-01T07:34:55;94108.00;;;8.59;100.00
23339;BME280;11841;49.368;20.962;2023-04-01T07:42:53;94123.38;;;9.21;94.10
23339;BME280;11841;49.368;20.962;2023-04-01T07:48:01;94116.63;;;9.35;91.42
23339;BME280;11841;49.368;20.962;2023-04-01T07:50:32;94122.09;;;9.50;90.83
23339;BME280;11841;49.368;20.962;2023-04-01T07:55:39;94111.13;;;9.63;88.96
23339;BME280;11841;49.368;20.962;2023-04-01T08:05:53;94128.50;;;10.08;85.66
23339;BME280;11841;49.368;20.962;2023-04-01T08:11:28;94121.31;;;10.30;81.70
23339;BME280;11841;49.368;20.962;2023-04-01T08:16:26;94127.78;;;10.49;79.67
23339;BME280;11841;49.368;20.962;2023-04-01T08:19:06;94127.13;;;10.63;81.42
23339;BME280;11841;49.368;20.962;2023-04-01T08:21:45;94125.84;;;10.71;81.58
23339;BME280;11841;49.368;20.962;2023-04-01T08:26:52;94119.56;;;10.82;78.23
23339;BME280;11841;49.368;20.962;2023-04-01T08:29:21;94119.31;;;10.88;76.19
23339;BME280;11841;49.368;20.962;2023-04-01T08:34:17;94118.69;;;11.18;75.89
23339;BME280;11841;49.368;20.962;2023-04-01T08:36:47;94121.38;;;11.23;77.62
23339;BME280;11841;49.368;20.962;2023-04-01T08:39:18;94119.81;;;11.32;76.48
23339;BME280;11841;49.368;20.962;2023-04-01T08:41:53;94135.47;;;11.39;75.14
23339;BME280;11841;49.368;20.962;2023-04-01T08:50:00;94126.72;;;11.33;70.74
23339;BME280;11841;49.368;20.962;2023-04-01T08:57:36;94131.56;;;11.56;67.80
23339;BME280;11841;49.368;20.962;2023-04-01T09:00:24;94124.16;;;11.58;69.54
23339;BME280;11841;49.368;20.962;2023-04-01T09:08:16;94123.66;;;11.66;68.46
23339;BME280;11841;49.368;20.962;2023-04-01T09:11:19;94125.56;;;11.76;69.77
23339;BME280;11841;49.368;20.962;2023-04-01T09:13:45;94120.00;;;11.82;66.60
23339;BME280;11841;49.368;20.962;2023-04-01T09:19:15;94108.88;;;12.05;67.95
23339;BME280;11841;49.368;20.962;2023-04-01T09:37:20;94109.69;;;12.36;61.15
23339;BME280;11841;49.368;20.962;2023-04-01T09:39:52;94109.44;;;12.33;60.88
23339;BME280;11841;49.368;20.962;2023-04-01T09:53:57;94096.66;;;12.55;59.54
23339;BME280;11841;49.368;20.962;2023-04-01T09:58:45;94093.47;;;12.53;61.40
23339;BME280;11841;49.368;20.962;2023-04-01T10:04:02;94113.94;;;12.82;59.30
23339;BME280;11841;49.368;20.962;2023-04-01T10:09:26;94098.50;;;12.89;59.59
23339;BME280;11841;49.368;20.962;2023-04-01T10:14:33;94106.72;;;12.93;58.23
23339;BME280;11841;49.368;20.962;2023-04-01T10:22:36;94110.97;;;13.04;59.72
23339;BME280;11841;49.368;20.962;2023-04-01T10:54:20;94113.34;;;12.95;59.49
23339;BME280;11841;49.368;20.962;2023-04-01T11:29:10;94105.63;;;13.14;57.75
23339;BME280;11841;49.368;20.962;2023-04-01T11:31:47;94104.59;;;13.10;56.87
23339;BME280;11841;49.368;20.962;2023-04-01T11:34:24;94106.72;;;13.08;57.49
23339;BME280;11841;49.368;20.962;2023-04-01T11:39:33;94121.63;;;13.04;58.28
23339;BME280;11841;49.368;20.962;2023-04-01T11:44:30;94121.63;;;12.89;56.53
23339;BME280;11841;49.368;20.962;2023-04-01T12:00:25;94111.00;;;12.89;57.50
23339;BME280;11841;49.368;20.962;2023-04-01T12:08:51;94121.63;;;13.04;58.06
23339;BME280;11841;49.368;20.962;2023-04-01T12:13:59;94127.75;;;13.04;55.68
23339;BME280;11841;49.368;20.962;2023-04-01T12:18:59;94130.69;;;13.03;57.40
23339;BME280;11841;49.368;20.962;2023-04-01T12:21:37;94125.63;;;13.06;56.34
23339;BME280;11841;49.368;20.962;2023-04-01T12:37:54;94108.81;;;13.16;55.73
23339;BME280;11841;49.368;20.962;2023-04-01T12:40:46;94109.38;;;13.13;56.14
23339;BME280;11841;49.368;20.962;2023-04-01T12:45:57;94116.50;;;13.22;57.50
23339;BME280;11841;49.368;20.962;2023-04-01T12:48:37;94110.63;;;13.25;55.77
23339;BME280;11841;49.368;20.962;2023-04-01T12:51:13;94107.97;;;13.30;56.73
23339;BME280;11841;49.368;20.962;2023-04-01T13:02:01;94113.47;;;13.59;55.26
23339;BME280;11841;49.368;20.962;2023-04-01T13:04:37;94119.03;;;13.58;54.69
23339;BME280;11841;49.368;20.962;2023-04-01T13:22:48;94121.44;;;13.64;56.09
23339;BME280;11841;49.368;20.962;2023-04-01T13:27:49;94120.88;;;13.67;55.49
23339;BME280;11841;49.368;20.962;2023-04-01T13:30:28;94119.81;;;13.63;55.14
23339;BME280;11841;49.368;20.962;2023-04-01T13:56:00;94133.59;;;13.75;54.91
23339;BME280;11841;49.368;20.962;2023-04-01T14:04:34;94148.63;;;13.51;56.21
23339;BME280;11841;49.368;20.962;2023-04-01T14:09:58;94150.78;;;13.39;57.23
23339;BME280;11841;49.368;20.962;2023-04-01T14:15:18;94143.06;;;13.38;57.67
23339;BME280;11841;49.368;20.962;2023-04-01T14:20:20;94146.56;;;13.33;57.25
23339;BME280;11841;49.368;20.962;2023-04-01T14:23:03;94150.03;;;13.28;57.49
23339;BME280;11841;49.368;20.962;2023-04-01T14:30:52;94151.59;;;13.34;57.22
23339;BME280;11841;49.368;20.962;2023-04-01T14:39:28;94160.69;;;13.28;57.58
23339;BME280;11841;49.368;20.962;2023-04-01T14:50:14;94162.28;;;13.24;58.28
23339;BME280;11841;49.368;20.962;2023-04-01T14:52:55;94158.03;;;13.28;59.09
23339;BME280;11841;49.368;20.962;2023-04-01T14:58:23;94165.19;;;13.28;59.10
23339;BME280;11841;49.368;20.962;2023-04-01T15:03:38;94166.56;;;13.15;59.53
23339;BME280;11841;49.368;20.962;2023-04-01T15:08:34;94172.69;;;13.16;60.20
23339;BME280;11841;49.368;20.962;2023-04-01T15:16:34;94185.16;;;13.00;61.53
23339;BME280;11841;49.368;20.962;2023-04-01T15:19:19;94190.50;;;13.00;62.18
23339;BME280;11841;49.368;20.962;2023-04-01T15:21:50;94196.09;;;13.04;62.45
23339;BME280;11841;49.368;20.962;2023-04-01T15:24:22;94191.56;;;12.89;63.24
23339;BME280;11841;49.368;20.962;2023-04-01T15:37:30;94204.84;;;12.69;66.18
23339;BME280;11841;49.368;20.962;2023-04-01T15:47:41;94206.19;;;12.62;68.93
23339;BME280;11841;49.368;20.962;2023-04-01T16:05:34;94217.09;;;12.50;72.73
23339;BME280;11841;49.368;20.962;2023-04-01T16:10:56;94226.63;;;12.36;74.24
23339;BME280;11841;49.368;20.962;2023-04-01T16:16:17;94233.00;;;12.30;74.68
23339;BME280;11841;49.368;20.962;2023-04-01T16:21:37;94249.19;;;12.34;74.33
23339;BME280;11841;49.368;20.962;2023-04-01T16:24:22;94252.38;;;12.31;73.89
23339;BME280;11841;49.368;20.962;2023-04-01T16:26:54;94256.63;;;12.22;72.93
23339;BME280;11841;49.368;20.962;2023-04-01T16:29:29;94255.53;;;12.18;72.42
23339;BME280;11841;49.368;20.962;2023-04-01T16:32:04;94252.06;;;12.17;71.90
23339;BME280;11841;49.368;20.962;2023-04-01T16:34:35;94264.06;;;12.20;71.33
23339;BME280;11841;49.368;20.962;2023-04-01T16:37:08;94265.63;;;12.21;71.27
23339;BME280;11841;49.368;20.962;2023-04-01T16:39:44;94263.78;;;12.16;71.30
23339;BME280;11841;49.368;20.962;2023-04-01T16:44:55;94274.94;;;12.13;70.62
23339;BME280;11841;49.368;20.962;2023-04-01T16:47:27;94286.88;;;12.10;70.86
23339;BME280;11841;49.368;20.962;2023-04-01T16:52:40;94294.69;;;11.75;71.81
23339;BME280;11841;49.368;20.962;2023-04-01T16:55:16;94299.13;;;11.65;72.90
23339;BME280;11841;49.368;20.962;2023-04-01T16:57:48;94304.31;;;11.50;73.90
23339;BME280;11841;49.368;20.962;2023-04-01T17:08:07;94319.31;;;11.34;74.89
23339;BME280;11841;49.368;20.962;2023-04-01T17:13:18;94325.50;;;11.45;74.61
23339;BME280;11841;49.368;20.962;2023-04-01T17:18:39;94338.53;;;11.46;74.36
23339;BME280;11841;49.368;20.962;2023-04-01T17:39:02;94359.16;;;11.39;75.72
23339;BME280;11841;49.368;20.962;2023-04-01T17:44:18;94364.44;;;11.34;76.66
23339;BME280;11841;49.368;20.962;2023-04-01T17:49:36;94374.41;;;11.22;78.06
23339;BME280;11841;49.368;20.962;2023-04-01T18:02:38;94388.41;;;11.13;78.93
23339;BME280;11841;49.368;20.962;2023-04-01T18:10:28;94387.69;;;10.95;80.48
23339;BME280;11841;49.368;20.962;2023-04-01T18:26:10;94395.97;;;10.51;83.77
23339;BME280;11841;49.368;20.962;2023-04-01T18:28:42;94393.06;;;10.52;83.33
23339;BME280;11841;49.368;20.962;2023-04-01T18:31:15;94400.69;;;10.49;83.95
23339;BME280;11841;49.368;20.962;2023-04-01T18:33:48;94399.50;;;10.35;84.37
23339;BME280;11841;49.368;20.962;2023-04-01T18:36:38;94405.81;;;10.34;84.48
23339;BME280;11841;49.368;20.962;2023-04-01T18:39:10;94407.91;;;10.32;83.91
23339;BME280;11841;49.368;20.962;2023-04-01T18:49:39;94420.25;;;10.21;82.68
23339;BME280;11841;49.368;20.962;2023-04-01T18:55:15;94409.75;;;10.10;82.04
23339;BME280;11841;49.368;20.962;2023-04-01T19:00:13;94421.72;;;9.96;81.69
23339;BME280;11841;49.368;20.962;2023-04-01T19:02:48;94420.03;;;9.90;81.93
23339;BME280;11841;49.368;20.962;2023-04-01T19:05:18;94426.72;;;9.75;82.67
23339;BME280;11841;49.368;20.962;2023-04-01T19:07:49;94426.84;;;9.69;82.57
23339;BME280;11841;49.368;20.962;2023-04-01T19:10:40;94432.88;;;9.64;82.30
23339;BME280;11841;49.368;20.962;2023-04-01T19:16:04;94427.94;;;9.51;82.05
23339;BME280;11841;49.368;20.962;2023-04-01T19:21:28;94444.00;;;9.33;81.72
23339;BME280;11841;49.368;20.962;2023-04-01T19:35:16;94461.72;;;8.88;81.99
23339;BME280;11841;49.368;20.962;2023-04-01T19:37:51;94482.28;;;8.86;82.07
23339;BME280;11841;49.368;20.962;2023-04-01T19:43:18;94473.38;;;8.76;83.62
23339;BME280;11841;49.368;20.962;2023-04-01T19:46:01;94489.63;;;8.56;85.20
23339;BME280;11841;49.368;20.962;2023-04-01T19:51:06;94484.03;;;8.41;86.00
23339;BME280;11841;49.368;20.962;2023-04-01T19:56:15;94491.97;;;8.41;86.57
23339;BME280;11841;49.368;20.962;2023-04-01T20:14:51;94511.00;;;8.31;88.88
23339;BME280;11841;49.368;20.962;2023-04-01T20:20:30;94508.06;;;8.28;88.83
23339;BME280;11841;49.368;20.962;2023-04-01T20:33:21;94523.66;;;8.29;90.19
23339;BME280;11841;49.368;20.962;2023-04-01T20:36:03;94525.97;;;8.26;91.32
23339;BME280;11841;49.368;20.962;2023-04-01T20:38:42;94526.06;;;8.19;91.59
23339;BME280;11841;49.368;20.962;2023-04-01T20:41:23;94530.44;;;8.25;91.23
23339;BME280;11841;49.368;20.962;2023-04-01T20:43:57;94531.59;;;8.29;91.11
23339;BME280;11841;49.368;20.962;2023-04-01T21:07:41;94532.16;;;8.43;91.38
23339;BME280;11841;49.368;20.962;2023-04-01T21:10:24;94532.94;;;8.43;90.67
23339;BME280;11841;49.368;20.962;2023-04-01T21:13:04;94535.38;;;8.45;91.01
23339;BME280;11841;49.368;20.962;2023-04-01T21:20:47;94538.56;;;8.47;91.19
23339;BME280;11841;49.368;20.962;2023-04-01T21:23:21;94540.66;;;8.45;91.28
23339;BME280;11841;49.368;20.962;2023-04-01T21:28:25;94541.66;;;8.44;92.08
23339;BME280;11841;49.368;20.962;2023-04-01T21:36:04;94542.25;;;8.46;92.39
23339;BME280;11841;49.368;20.962;2023-04-01T21:46:36;94548.34;;;8.46;92.55
23339;BME280;11841;49.368;20.962;2023-04-01T22:09:25;94550.16;;;8.46;92.17
23339;BME280;11841;49.368;20.962;2023-04-01T22:17:00;94550.97;;;8.35;91.58
23339;BME280;11841;49.368;20.962;2023-04-01T22:22:25;94555.13;;;8.31;91.53
23339;BME280;11841;49.368;20.962;2023-04-01T22:29:58;94549.16;;;8.24;91.75
23339;BME280;11841;49.368;20.962;2023-04-01T22:32:31;94542.03;;;8.24;92.35
23339;BME280;11841;49.368;20.962;2023-04-01T22:37:50;94556.59;;;8.27;92.03
23339;BME280;11841;49.368;20.962;2023-04-01T22:40:24;94549.16;;;8.24;91.97
23339;BME280;11841;49.368;20.962;2023-04-01T22:42:53;94556.47;;;8.22;91.97
23339;BME280;11841;49.368;20.962;2023-04-01T22:47:53;94551.19;;;8.22;92.16
23339;BME280;11841;49.368;20.962;2023-04-01T22:53:06;94552.00;;;8.22;92.90
23339;BME280;11841;49.368;20.962;2023-04-01T22:55:34;94551.41;;;8.20;92.61
23339;BME280;11841;49.368;20.962;2023-04-01T22:58:23;94553.13;;;8.15;93.34
23339;BME280;11841;49.368;20.962;2023-04-01T23:00:52;94550.47;;;8.15;93.89
23339;BME280;11841;49.368;20.962;2023-04-01T23:03:22;94553.72;;;8.17;93.39
23339;BME280;11841;49.368;20.962;2023-04-01T23:05:52;94546.84;;;8.16;95.06
23339;BME280;11841;49.368;20.962;2023-04-01T23:13:20;94546.13;;;8.09;94.43
23339;BME280;11841;49.368;20.962;2023-04-01T23:15:48;94547.63;;;8.05;95.80
23339;BME280;11841;49.368;20.962;2023-04-01T23:26:30;94556.34;;;7.94;92.83
23339;BME280;11841;49.368;20.962;2023-04-01T23:28:58;94558.16;;;7.93;93.34
23339;BME280;11841;49.368;20.962;2023-04-01T23:31:27;94554.72;;;7.93;93.41
23339;BME280;11841;49.368;20.962;2023-04-01T23:33:55;94553.69;;;7.94;93.36
23339;BME280;11841;49.368;20.962;2023-04-01T23:36:22;94558.53;;;7.97;93.56
23339;BME280;11841;49.368;20.962;2023-04-01T23:38:48;94555.31;;;7.95;94.09
23339;BME280;11841;49.368;20.962;2023-04-01T23:41:20;94559.75;;;7.94;93.70
23339;BME280;11841;49.368;20.962;2023-04-01T23:44:09;94557.34;;;7.93;94.34
23339;BME280;11841;49.368;20.962;2023-04-01T23:46:35;94550.84;;;7.95;94.21
23339;BME280;11841;49.368;20.962;2023-04-01T23:49:03;94559.34;;;7.97;94.64
23339;BME280;11841;49.368;20.962;2023-04-01T23:51:38;94555.75;;;7.92;96.09
23339;BME280;11841;49.368;20.962;2023-04-01T23:57:09;94564.13;;;7.89;96.12
23339;BME280;11841;49.368;20.962;2023-04-01T23:59:37;94562.63;;;7.93;94.99
